sensor_id;sensor_type;location;lat;lon;timestamp;pressure;altitude;pressure_sealevel;temperature;humidity
81151;BME280;70629;-26.026;27.976;2023-06-22T00:01:29;86841.88;;;5.77;59.31
81151;BME280;70629;-26.026;27.976;2023-06-22T00:03:58;86840.03;;;6.28;58.14
81151;BME280;70629;-26.026;27.976;2023-06-22T00:06:27;86846.50;;;5.77;59.13
81151;BME280;70629;-26.026;27.976;2023-06-22T00:08:57;86844.94;;;5.64;59.58
81151;BME280;70629;-26.026;27.976;2023-06-22T00:11:25;86844.97;;;5.83;59.05
81151;BME280;70629;-26.026;27.976;2023-06-22T00:13:56;86845.97;;;6.07;58.17
81151;BME280;70629;-26.026;27.976;2023-06-22T00:16:25;86839.34;;;6.17;58.01
81151;BME280;70629;-26.026;27.976;2023-06-22T00:18:54;86838.34;;;5.55;60.59
81151;BME280;70629;-26.026;27.976;2023-06-22T00:21:23;86841.69;;;5.46;61.13
81151;BME280;70629;-26.026;27.976;2023-06-22T00:23:52;86839.16;;;5.48;59.82
81151;BME280;70629;-26.026;27.976;2023-06-22T00:26:22;86838.75;;;5.71;60.09
81151;BME280;70629;-26.026;27.976;2023-06-22T00:28:50;86838.34;;;5.65;60.31
81151;BME280;70629;-26.026;27.976;2023-06-22T00:31:20;86833.66;;;5.17;61.70
81151;BME280;70629;-26.026;27.976;2023-06-22T00:33:49;86843.69;;;5.65;60.42
81151;BME280;70629;-26.026;27.976;2023-06-22T00:36:19;86846.63;;;5.50;60.94
81151;BME280;70629;-26.026;27.976;2023-06-22T00:38:48;86841.47;;;5.15;62.34
81151;BME280;70629;-26.026;27.976;2023-06-22T00:41:19;86847.03;;;5.00;62.94
81151;BME280;70629;-26.026;27.976;2023-06-22T00:43:47;86846.47;;;4.92;63.01
81151;BME280;70629;-26.026;27.976;2023-06-22T00:46:17;86841.94;;;4.85;62.97
81151;BME280;70629;-26.026;27.976;2023-06-22T00:48:46;86841.34;;;5.23;61.50
81151;BME280;70629;-26.026;27.976;2023-06-22T00:51:15;86848.28;;;5.36;61.53
81151;BME280;70629;-26.026;27.976;2023-06-22T00:53:45;86848.41;;;5.47;59.28
81151;BME280;70629;-26.026;27.976;2023-06-22T00:56:14;86847.50;;;6.00;57.56
81151;BME280;70629;-26.026;27.976;2023-06-22T00:58:48;86843.44;;;6.09;56.33
81151;BME280;70629;-26.026;27.976;2023-06-22T01:01:16;86836.56;;;5.96;56.23
81151;BME280;70629;-26.026;27.976;2023-06-22T01:03:46;86849.06;;;5.94;56.98
81151;BME280;70629;-26.026;27.976;2023-06-22T01:06:21;86832.63;;;6.16;56.49
81151;BME280;70629;-26.026;27.976;2023-06-22T01:09:27;86842.28;;;6.31;55.86
81151;BME280;70629;-26.026;27.976;2023-06-22T01:11:59;86837.66;;;6.12;55.96
81151;BME280;70629;-26.026;27.976;2023-06-22T01:15:01;86841.03;;;5.94;56.13
81151;BME280;70629;-26.026;27.976;2023-06-22T01:17:32;86842.88;;;6.01;56.79
81151;BME280;70629;-26.026;27.976;2023-06-22T01:20:01;86846.97;;;6.11;56.75
81151;BME280;70629;-26.026;27.976;2023-06-22T01:22:36;86841.03;;;6.13;56.53
81151;BME280;70629;-26.026;27.976;2023-06-22T01:25:26;86837.66;;;5.93;56.90
81151;BME280;70629;-26.026;27.976;2023-06-22T01:28:50;86835.59;;;5.92;56.36
81151;BME280;70629;-26.026;27.976;2023-06-22T01:30:52;86838.94;;;6.02;57.33
81151;BME280;70629;-26.026;27.976;2023-06-22T01:33:37;86836.28;;;5.92;57.54
81151;BME280;70629;-26.026;27.976;2023-06-22T01:36:08;86838.94;;;6.31;57.17
81151;BME280;70629;-26.026;27.976;2023-06-22T01:38:39;86834.16;;;6.10;56.96
81151;BME280;70629;-26.026;27.976;2023-06-22T01:41:09;86831.50;;;6.00;57.14
81151;BME280;70629;-26.026;27.976;2023-06-22T01:43:38;86824.19;;;5.91;57.22
81151;BME280;70629;-26.026;27.976;2023-06-22T01:46:08;86822.47;;;5.77;58.14
81151;BME280;70629;-26.026;27.976;2023-06-22T01:48:38;86825.31;;;6.07;57.31
81151;BME280;70629;-26.026;27.976;2023-06-22T01:51:08;86827.56;;;6.21;56.73
81151;BME280;70629;-26.026;27.976;2023-06-22T01:53:37;86826.31;;;6.02;57.49
81151;BME280;70629;-26.026;27.976;2023-06-22T01:56:06;86829.25;;;5.97;58.09
81151;BME280;70629;-26.026;27.976;2023-06-22T01:58:40;86830.91;;;5.83;56.77
81151;BME280;70629;-26.026;27.976;2023-06-22T02:01:13;86831.63;;;5.83;57.05
81151;BME280;70629;-26.026;27.976;2023-06-22T02:03:46;86845.81;;;5.95;57.11
81151;BME280;70629;-26.026;27.976;2023-06-22T02:06:23;86836.13;;;6.09;56.52
81151;BME280;70629;-26.026;27.976;2023-06-22T02:08:57;86838.97;;;5.92;57.30
81151;BME280;70629;-26.026;27.976;2023-06-22T02:11:29;86836.09;;;5.71;57.87
81151;BME280;70629;-26.026;27.976;2023-06-22T02:14:00;86839.03;;;5.65;58.23
81151;BME280;70629;-26.026;27.976;2023-06-22T02:16:31;86837.13;;;6.04;56.88
81151;BME280;70629;-26.026;27.976;2023-06-22T02:19:02;86834.84;;;5.82;57.93
81151;BME280;70629;-26.026;27.976;2023-06-22T02:21:34;86835.53;;;5.53;58.29
81151;BME280;70629;-26.026;27.976;2023-06-22T02:24:04;86837.19;;;5.39;60.40
81151;BME280;70629;-26.026;27.976;2023-06-22T02:26:33;86839.06;;;5.00;61.16
81151;BME280;70629;-26.026;27.976;2023-06-22T02:29:03;86835.69;;;5.55;58.04
81151;BME280;70629;-26.026;27.976;2023-06-22T02:31:32;86844.78;;;5.62;58.45
81151;BME280;70629;-26.026;27.976;2023-06-22T02:34:01;86849.34;;;5.98;57.24
81151;BME280;70629;-26.026;27.976;2023-06-22T02:36:30;86844.00;;;5.98;57.16
81151;BME280;70629;-26.026;27.976;2023-06-22T02:38:59;86839.75;;;5.75;58.05
81151;BME280;70629;-26.026;27.976;2023-06-22T02:41:29;86844.00;;;6.07;56.92
81151;BME280;70629;-26.026;27.976;2023-06-22T02:44:00;86847.94;;;5.97;56.73
81151;BME280;70629;-26.026;27.976;2023-06-22T02:46:29;86845.81;;;5.95;56.12
81151;BME280;70629;-26.026;27.976;2023-06-22T02:48:58;86844.56;;;5.96;57.02
81151;BME280;70629;-26.026;27.976;2023-06-22T02:51:27;86848.50;;;6.05;56.33
81151;BME280;70629;-26.026;27.976;2023-06-22T02:53:56;86853.41;;;6.08;56.48
81151;BME280;70629;-26.026;27.976;2023-06-22T02:56:26;86846.81;;;6.00;56.90
81151;BME280;70629;-26.026;27.976;2023-06-22T02:58:55;86849.72;;;5.75;56.86
81151;BME280;70629;-26.026;27.976;2023-06-22T03:01:30;86845.28;;;5.87;56.82
81151;BME280;70629;-26.026;27.976;2023-06-22T03:03:59;86849.44;;;5.71;56.71
81151;BME280;70629;-26.026;27.976;2023-06-22T03:06:28;86852.69;;;5.69;57.01
81151;BME280;70629;-26.026;27.976;2023-06-22T03:09:04;86848.06;;;5.89;56.68
81151;BME280;70629;-26.026;27.976;2023-06-22T03:11:34;86850.75;;;5.99;55.79
81151;BME280;70629;-26.026;27.976;2023-06-22T03:14:03;86848.94;;;6.01;55.37
81151;BME280;70629;-26.026;27.976;2023-06-22T03:16:32;86858.03;;;5.79;57.69
81151;BME280;70629;-26.026;27.976;2023-06-22T03:19:02;86846.63;;;5.50;59.47
81151;BME280;70629;-26.026;27.976;2023-06-22T03:21:31;86853.44;;;5.24;59.19
81151;BME280;70629;-26.026;27.976;2023-06-22T03:24:00;86849.84;;;5.48;57.93
81151;BME280;70629;-26.026;27.976;2023-06-22T03:26:29;86844.91;;;5.35;59.56
81151;BME280;70629;-26.026;27.976;2023-06-22T03:28:58;86844.19;;;5.25;59.15
81151;BME280;70629;-26.026;27.976;2023-06-22T03:31:27;86848.53;;;4.84;61.07
81151;BME280;70629;-26.026;27.976;2023-06-22T03:33:57;86848.75;;;4.69;62.50
81151;BME280;70629;-26.026;27.976;2023-06-22T03:36:26;86848.09;;;4.78;62.13
81151;BME280;70629;-26.026;27.976;2023-06-22T03:38:55;86853.94;;;4.67;62.69
81151;BME280;70629;-26.026;27.976;2023-06-22T03:41:24;86855.63;;;4.72;61.67
81151;BME280;70629;-26.026;27.976;2023-06-22T03:43:53;86847.44;;;4.87;61.37
81151;BME280;70629;-26.026;27.976;2023-06-22T03:46:22;86856.50;;;4.48;62.28
81151;BME280;70629;-26.026;27.976;2023-06-22T03:48:52;86855.59;;;4.35;63.77
81151;BME280;70629;-26.026;27.976;2023-06-22T03:51:22;86858.91;;;4.26;63.86
81151;BME280;70629;-26.026;27.976;2023-06-22T03:53:51;86860.38;;;4.37;63.90
81151;BME280;70629;-26.026;27.976;2023-06-22T03:56:20;86859.63;;;4.54;62.18
81151;BME280;70629;-26.026;27.976;2023-06-22T03:58:49;86864.28;;;4.99;60.87
81151;BME280;70629;-26.026;27.976;2023-06-22T04:01:19;86866.59;;;4.76;61.53
81151;BME280;70629;-26.026;27.976;2023-06-22T04:03:48;86864.44;;;5.01;61.19
81151;BME280;70629;-26.026;27.976;2023-06-22T04:06:18;86873.28;;;4.67;62.46
81151;BME280;70629;-26.026;27.976;2023-06-22T04:08:47;86868.78;;;4.60;62.68
81151;BME280;70629;-26.026;27.976;2023-06-22T04:11:19;86869.97;;;4.23;63.95
81151;BME280;70629;-26.026;27.976;2023-06-22T04:13:48;86868.16;;;4.25;64.71
81151;BME280;70629;-26.026;27.976;2023-06-22T04:16:19;86876.81;;;3.99;64.82
81151;BME280;70629;-26.026;27.976;2023-06-22T04:18:48;86875.22;;;3.96;64.95
81151;BME280;70629;-26.026;27.976;2023-06-22T04:21:18;86872.25;;;3.92;64.37
81151;BME280;70629;-26.026;27.976;2023-06-22T04:23:48;86878.81;;;3.91;64.69
81151;BME280;70629;-26.026;27.976;2023-06-22T04:26:17;86885.06;;;4.20;62.93
81151;BME280;70629;-26.026;27.976;2023-06-22T04:28:49;86887.75;;;4.47;62.95
81151;BME280;70629;-26.026;27.976;2023-06-22T04:31:20;86884.63;;;4.41;63.89
81151;BME280;70629;-26.026;27.976;2023-06-22T04:33:49;86887.19;;;4.22;64.54
81151;BME280;70629;-26.026;27.976;2023-06-22T04:36:20;86894.75;;;4.43;63.08
81151;BME280;70629;-26.026;27.976;2023-06-22T04:38:52;86899.34;;;3.98;65.38
81151;BME280;70629;-26.026;27.976;2023-06-22T04:41:22;86904.75;;;4.52;63.12
81151;BME280;70629;-26.026;27.976;2023-06-22T04:43:52;86911.09;;;4.39;63.09
81151;BME280;70629;-26.026;27.976;2023-06-22T04:46:22;86907.09;;;4.04;63.73
81151;BME280;70629;-26.026;27.976;2023-06-22T04:48:51;86909.34;;;3.73;64.93
81151;BME280;70629;-26.026;27.976;2023-06-22T04:51:20;86909.75;;;3.69;65.76
81151;BME280;70629;-26.026;27.976;2023-06-22T04:53:50;86903.22;;;4.31;65.23
81151;BME280;70629;-26.026;27.976;2023-06-22T04:56:19;86900.16;;;4.62;63.71
81151;BME280;70629;-26.026;27.976;2023-06-22T04:58:50;86901.25;;;4.32;63.37
81151;BME280;70629;-26.026;27.976;2023-06-22T05:01:20;86906.59;;;4.59;62.45
81151;BME280;70629;-26.026;27.976;2023-06-22T05:03:51;86901.81;;;4.57;63.08
81151;BME280;70629;-26.026;27.976;2023-06-22T05:06:24;86911.78;;;3.95;64.84
81151;BME280;70629;-26.026;27.976;2023-06-22T05:08:57;86911.38;;;3.82;65.76
81151;BME280;70629;-26.026;27.976;2023-06-22T05:11:27;86903.56;;;3.84;65.88
81151;BME280;70629;-26.026;27.976;2023-06-22T05:13:57;86906.59;;;4.15;66.31
81151;BME280;70629;-26.026;27.976;2023-06-22T05:16:26;86904.44;;;4.48;64.37
81151;BME280;70629;-26.026;27.976;2023-06-22T05:18:55;86916.09;;;4.52;63.86
81151;BME280;70629;-26.026;27.976;2023-06-22T05:21:26;86915.69;;;4.12;65.68
81151;BME280;70629;-26.026;27.976;2023-06-22T05:23:56;86923.22;;;3.88;66.48
81151;BME280;70629;-26.026;27.976;2023-06-22T05:26:29;86924.69;;;4.60;65.04
81151;BME280;70629;-26.026;27.976;2023-06-22T05:29:00;86926.38;;;4.38;66.82
81151;BME280;70629;-26.026;27.976;2023-06-22T05:31:29;86927.38;;;4.60;65.91
81151;BME280;70629;-26.026;27.976;2023-06-22T05:33:59;86936.06;;;4.88;63.60
81151;BME280;70629;-26.026;27.976;2023-06-22T05:36:29;86942.03;;;4.52;66.33
81151;BME280;70629;-26.026;27.976;2023-06-22T05:38:58;86931.81;;;4.75;64.66
81151;BME280;70629;-26.026;27.976;2023-06-22T05:41:27;86936.44;;;4.57;65.14
81151;BME280;70629;-26.026;27.976;2023-06-22T05:43:56;86935.59;;;4.81;64.51
81151;BME280;70629;-26.026;27.976;2023-06-22T05:46:26;86931.75;;;4.92;65.48
81151;BME280;70629;-26.026;27.976;2023-06-22T05:48:55;86934.94;;;5.17;64.34
81151;BME280;70629;-26.026;27.976;2023-06-22T05:51:24;86939.94;;;5.40;64.48
81151;BME280;70629;-26.026;27.976;2023-06-22T05:53:53;86937.47;;;5.61;62.90
81151;BME280;70629;-26.026;27.976;2023-06-22T05:56:23;86947.94;;;5.86;62.37
81151;BME280;70629;-26.026;27.976;2023-06-22T05:58:52;86946.56;;;5.95;62.01
81151;BME280;70629;-26.026;27.976;2023-06-22T06:01:21;86947.13;;;6.03;62.68
81151;BME280;70629;-26.026;27.976;2023-06-22T06:03:50;86952.19;;;5.99;61.36
81151;BME280;70629;-26.026;27.976;2023-06-22T06:06:21;86946.03;;;6.06;61.26
81151;BME280;70629;-26.026;27.976;2023-06-22T06:08:53;86947.59;;;6.28;61.90
81151;BME280;70629;-26.026;27.976;2023-06-22T06:11:22;86949.81;;;6.51;60.87
81151;BME280;70629;-26.026;27.976;2023-06-22T06:13:51;86955.59;;;6.76;60.59
81151;BME280;70629;-26.026;27.976;2023-06-22T06:16:22;86953.03;;;6.78;61.56
81151;BME280;70629;-26.026;27.976;2023-06-22T06:18:51;86948.66;;;6.92;59.66
81151;BME280;70629;-26.026;27.976;2023-06-22T06:21:22;86957.38;;;7.02;58.06
81151;BME280;70629;-26.026;27.976;2023-06-22T06:23:51;86959.44;;;7.23;56.92
81151;BME280;70629;-26.026;27.976;2023-06-22T06:26:22;86957.97;;;7.41;56.49
81151;BME280;70629;-26.026;27.976;2023-06-22T06:28:56;86955.75;;;7.38;57.40
81151;BME280;70629;-26.026;27.976;2023-06-22T06:31:26;86956.94;;;7.56;56.43
81151;BME280;70629;-26.026;27.976;2023-06-22T06:33:57;86961.13;;;7.69;58.05
81151;BME280;70629;-26.026;27.976;2023-06-22T06:36:26;86966.69;;;7.82;56.33
81151;BME280;70629;-26.026;27.976;2023-06-22T06:38:55;86965.06;;;7.99;55.09
81151;BME280;70629;-26.026;27.976;2023-06-22T06:41:25;86971.94;;;8.02;55.23
81151;BME280;70629;-26.026;27.976;2023-06-22T06:43:54;86966.28;;;8.07;55.32
81151;BME280;70629;-26.026;27.976;2023-06-22T06:46:23;86971.59;;;8.17;53.65
81151;BME280;70629;-26.026;27.976;2023-06-22T06:48:53;86975.94;;;8.22;54.10
81151;BME280;70629;-26.026;27.976;2023-06-22T06:51:22;86974.69;;;8.44;54.56
81151;BME280;70629;-26.026;27.976;2023-06-22T06:53:51;86979.38;;;8.65;51.82
81151;BME280;70629;-26.026;27.976;2023-06-22T06:56:21;86982.84;;;8.89;50.75
81151;BME280;70629;-26.026;27.976;2023-06-22T06:58:50;86986.16;;;8.99;50.66
81151;BME280;70629;-26.026;27.976;2023-06-22T07:01:20;86987.47;;;9.09;49.57
81151;BME280;70629;-26.026;27.976;2023-06-22T07:03:50;86983.94;;;9.40;47.57
81151;BME280;70629;-26.026;27.976;2023-06-22T07:06:21;86983.06;;;9.58;45.54
81151;BME280;70629;-26.026;27.976;2023-06-22T07:08:50;86985.13;;;9.48;46.89
81151;BME280;70629;-26.026;27.976;2023-06-22T07:11:20;86985.75;;;9.58;44.88
81151;BME280;70629;-26.026;27.976;2023-06-22T07:13:49;86975.13;;;9.60;45.99
81151;BME280;70629;-26.026;27.976;2023-06-22T07:16:18;86979.84;;;9.83;44.70
81151;BME280;70629;-26.026;27.976;2023-06-22T07:18:49;86987.78;;;10.99;42.18
81151;BME280;70629;-26.026;27.976;2023-06-22T07:21:21;86985.44;;;10.69;41.77
81151;BME280;70629;-26.026;27.976;2023-06-22T07:23:52;86986.50;;;10.52;43.85
81151;BME280;70629;-26.026;27.976;2023-06-22T07:26:23;86989.41;;;10.56;44.15
81151;BME280;70629;-26.026;27.976;2023-06-22T07:28:53;86991.63;;;10.60;44.32
81151;BME280;70629;-26.026;27.976;2023-06-22T07:31:25;86985.38;;;11.17;41.69
81151;BME280;70629;-26.026;27.976;2023-06-22T07:33:54;86990.78;;;11.17;42.77
81151;BME280;70629;-26.026;27.976;2023-06-22T07:36:24;86991.16;;;11.37;41.85
81151;BME280;70629;-26.026;27.976;2023-06-22T07:38:53;86986.31;;;11.47;42.77
81151;BME280;70629;-26.026;27.976;2023-06-22T07:41:23;86987.34;;;11.54;42.65
81151;BME280;70629;-26.026;27.976;2023-06-22T07:43:54;86997.06;;;11.84;41.41
81151;BME280;70629;-26.026;27.976;2023-06-22T07:46:23;86993.50;;;12.07;40.96
81151;BME280;70629;-26.026;27.976;2023-06-22T07:48:53;86987.47;;;12.47;37.69
81151;BME280;70629;-26.026;27.976;2023-06-22T07:51:23;86987.06;;;12.53;37.68
81151;BME280;70629;-26.026;27.976;2023-06-22T07:53:53;86987.38;;;12.59;37.40
81151;BME280;70629;-26.026;27.976;2023-06-22T07:56:22;86989.06;;;12.66;38.51
81151;BME280;70629;-26.026;27.976;2023-06-22T07:58:53;86989.06;;;12.93;36.39
81151;BME280;70629;-26.026;27.976;2023-06-22T08:01:23;86988.75;;;12.87;38.75
81151;BME280;70629;-26.026;27.976;2023-06-22T08:03:55;86986.84;;;13.17;34.04
81151;BME280;70629;-26.026;27.976;2023-06-22T08:06:24;86985.78;;;13.38;34.65
81151;BME280;70629;-26.026;27.976;2023-06-22T08:08:53;86989.25;;;13.54;35.10
81151;BME280;70629;-26.026;27.976;2023-06-22T08:11:28;86987.47;;;13.74;35.56
81151;BME280;70629;-26.026;27.976;2023-06-22T08:14:00;86989.69;;;13.93;35.45
81151;BME280;70629;-26.026;27.976;2023-06-22T08:16:30;86990.47;;;13.96;36.35
81151;BME280;70629;-26.026;27.976;2023-06-22T08:19:00;86989.00;;;14.08;36.08
81151;BME280;70629;-26.026;27.976;2023-06-22T08:21:32;86986.75;;;14.34;35.53
81151;BME280;70629;-26.026;27.976;2023-06-22T08:24:03;86985.56;;;14.53;35.39
81151;BME280;70629;-26.026;27.976;2023-06-22T08:26:33;86981.91;;;14.62;35.24
81151;BME280;70629;-26.026;27.976;2023-06-22T08:29:05;86983.63;;;14.87;35.57
81151;BME280;70629;-26.026;27.976;2023-06-22T08:31:37;86974.22;;;15.06;34.21
81151;BME280;70629;-26.026;27.976;2023-06-22T08:34:06;86987.56;;;15.17;33.85
81151;BME280;70629;-26.026;27.976;2023-06-22T08:36:35;86981.31;;;15.30;32.68
81151;BME280;70629;-26.026;27.976;2023-06-22T08:39:10;86975.78;;;15.44;35.36
81151;BME280;70629;-26.026;27.976;2023-06-22T08:41:39;86974.50;;;15.63;30.55
81151;BME280;70629;-26.026;27.976;2023-06-22T08:44:08;86976.56;;;15.82;31.08
81151;BME280;70629;-26.026;27.976;2023-06-22T08:46:37;86976.88;;;16.08;29.66
81151;BME280;70629;-26.026;27.976;2023-06-22T08:49:10;86973.91;;;16.37;26.72
81151;BME280;70629;-26.026;27.976;2023-06-22T08:51:39;86968.84;;;16.30;27.84
81151;BME280;70629;-26.026;27.976;2023-06-22T08:54:08;86968.63;;;16.41;27.06
81151;BME280;70629;-26.026;27.976;2023-06-22T08:56:37;86969.88;;;16.38;29.40
81151;BME280;70629;-26.026;27.976;2023-06-22T08:59:06;86967.06;;;16.74;26.75
81151;BME280;70629;-26.026;27.976;2023-06-22T09:01:36;86959.69;;;16.39;27.55
81151;BME280;70629;-26.026;27.976;2023-06-22T09:04:05;86964.84;;;16.68;28.40
81151;BME280;70629;-26.026;27.976;2023-06-22T09:06:36;86961.72;;;16.76;26.95
81151;BME280;70629;-26.026;27.976;2023-06-22T09:09:11;86964.22;;;17.09;24.83
81151;BME280;70629;-26.026;27.976;2023-06-22T09:11:41;86970.28;;;17.07;24.22
81151;BME280;70629;-26.026;27.976;2023-06-22T09:14:11;86959.03;;;17.17;23.51
81151;BME280;70629;-26.026;27.976;2023-06-22T09:16:41;86954.00;;;17.29;20.52
81151;BME280;70629;-26.026;27.976;2023-06-22T09:19:10;86954.84;;;17.14;19.44
81151;BME280;70629;-26.026;27.976;2023-06-22T09:21:42;86963.19;;;17.60;17.96
81151;BME280;70629;-26.026;27.976;2023-06-22T09:24:11;86952.66;;;17.72;17.72
81151;BME280;70629;-26.026;27.976;2023-06-22T09:26:43;86949.06;;;17.87;20.12
81151;BME280;70629;-26.026;27.976;2023-06-22T09:29:12;86949.81;;;17.89;18.75
81151;BME280;70629;-26.026;27.976;2023-06-22T09:31:44;86944.28;;;18.09;17.56
81151;BME280;70629;-26.026;27.976;2023-06-22T09:34:15;86935.28;;;18.26;18.14
81151;BME280;70629;-26.026;27.976;2023-06-22T09:36:49;86935.63;;;18.38;18.25
81151;BME280;70629;-26.026;27.976;2023-06-22T09:39:18;86937.19;;;18.46;17.50
81151;BME280;70629;-26.026;27.976;2023-06-22T09:41:47;86935.16;;;18.46;17.66
81151;BME280;70629;-26.026;27.976;2023-06-22T09:44:16;86932.69;;;18.54;20.09
81151;BME280;70629;-26.026;27.976;2023-06-22T09:46:45;86923.56;;;18.69;17.84
81151;BME280;70629;-26.026;27.976;2023-06-22T09:49:15;86933.00;;;18.90;17.53
81151;BME280;70629;-26.026;27.976;2023-06-22T09:51:44;86921.19;;;19.07;18.48
81151;BME280;70629;-26.026;27.976;2023-06-22T09:54:13;86926.63;;;19.07;18.79
81151;BME280;70629;-26.026;27.976;2023-06-22T09:56:42;86927.72;;;18.96;17.19
81151;BME280;70629;-26.026;27.976;2023-06-22T09:59:11;86921.09;;;19.31;19.09
81151;BME280;70629;-26.026;27.976;2023-06-22T10:01:45;86912.09;;;19.24;17.81
81151;BME280;70629;-26.026;27.976;2023-06-22T10:04:14;86911.50;;;19.28;18.28
81151;BME280;70629;-26.026;27.976;2023-06-22T10:06:44;86914.47;;;19.94;17.83
81151;BME280;70629;-26.026;27.976;2023-06-22T10:09:13;86904.97;;;19.67;17.78
81151;BME280;70629;-26.026;27.976;2023-06-22T10:11:42;86904.00;;;20.14;18.26
81151;BME280;70629;-26.026;27.976;2023-06-22T10:14:12;86894.63;;;19.63;16.77
81151;BME280;70629;-26.026;27.976;2023-06-22T10:16:41;86892.25;;;19.78;21.41
81151;BME280;70629;-26.026;27.976;2023-06-22T10:19:10;86892.66;;;19.66;17.80
81151;BME280;70629;-26.026;27.976;2023-06-22T10:21:39;86889.34;;;19.69;17.66
81151;BME280;70629;-26.026;27.976;2023-06-22T10:24:09;86884.81;;;20.10;17.47
81151;BME280;70629;-26.026;27.976;2023-06-22T10:26:38;86877.97;;;20.11;18.15
81151;BME280;70629;-26.026;27.976;2023-06-22T10:29:09;86879.81;;;20.00;18.83
81151;BME280;70629;-26.026;27.976;2023-06-22T10:31:44;86868.34;;;20.38;17.14
81151;BME280;70629;-26.026;27.976;2023-06-22T10:34:13;86876.72;;;20.80;18.30
81151;BME280;70629;-26.026;27.976;2023-06-22T10:36:42;86863.34;;;20.28;16.07
81151;BME280;70629;-26.026;27.976;2023-06-22T10:39:11;86858.16;;;20.40;17.15
81151;BME280;70629;-26.026;27.976;2023-06-22T10:41:40;86860.03;;;20.66;17.41
81151;BME280;70629;-26.026;27.976;2023-06-22T10:44:09;86859.56;;;20.77;17.57
81151;BME280;70629;-26.026;27.976;2023-06-22T10:46:39;86852.75;;;20.78;17.15
81151;BME280;70629;-26.026;27.976;2023-06-22T10:49:08;86844.53;;;20.78;18.36
81151;BME280;70629;-26.026;27.976;2023-06-22T10:51:37;86845.84;;;21.11;17.47
81151;BME280;70629;-26.026;27.976;2023-06-22T10:54:06;86840.72;;;20.93;16.92
81151;BME280;70629;-26.026;27.976;2023-06-22T10:56:36;86838.28;;;21.10;17.42
81151;BME280;70629;-26.026;27.976;2023-06-22T10:59:05;86841.38;;;21.28;17.59
81151;BME280;70629;-26.026;27.976;2023-06-22T11:01:34;86829.09;;;21.31;17.39
81151;BME280;70629;-26.026;27.976;2023-06-22T11:04:03;86838.72;;;20.96;16.63
81151;BME280;70629;-26.026;27.976;2023-06-22T11:06:33;86835.84;;;20.88;16.99
81151;BME280;70629;-26.026;27.976;2023-06-22T11:09:02;86831.69;;;20.85;15.75
81151;BME280;70629;-26.026;27.976;2023-06-22T11:11:51;86834.44;;;20.87;16.06
81151;BME280;70629;-26.026;27.976;2023-06-22T11:14:22;86832.00;;;20.65;17.26
81151;BME280;70629;-26.026;27.976;2023-06-22T11:16:52;86834.81;;;20.69;16.03
81151;BME280;70629;-26.026;27.976;2023-06-22T11:19:21;86824.31;;;20.93;16.35
81151;BME280;70629;-26.026;27.976;2023-06-22T11:21:50;86821.81;;;21.06;19.09
81151;BME280;70629;-26.026;27.976;2023-06-22T11:24:19;86824.59;;;21.08;18.17
81151;BME280;70629;-26.026;27.976;2023-06-22T11:26:51;86832.66;;;21.01;19.28
81151;BME280;70629;-26.026;27.976;2023-06-22T11:29:20;86823.88;;;21.07;17.15
81151;BME280;70629;-26.026;27.976;2023-06-22T11:32:04;86823.75;;;20.99;19.62
81151;BME280;70629;-26.026;27.976;2023-06-22T11:34:33;86822.88;;;20.88;16.27
81151;BME280;70629;-26.026;27.976;2023-06-22T11:37:03;86818.72;;;20.85;17.60
81151;BME280;70629;-26.026;27.976;2023-06-22T11:39:32;86814.09;;;20.96;18.14
81151;BME280;70629;-26.026;27.976;2023-06-22T11:42:14;86816.06;;;20.91;19.94
81151;BME280;70629;-26.026;27.976;2023-06-22T11:44:43;86805.50;;;20.38;17.56
81151;BME280;70629;-26.026;27.976;2023-06-22T11:47:13;86805.13;;;20.53;19.13
81151;BME280;70629;-26.026;27.976;2023-06-22T11:49:42;86804.59;;;20.61;18.02
81151;BME280;70629;-26.026;27.976;2023-06-22T11:52:11;86805.38;;;20.68;19.33
81151;BME280;70629;-26.026;27.976;2023-06-22T11:54:41;86804.44;;;20.53;18.92
81151;BME280;70629;-26.026;27.976;2023-06-22T11:57:09;86802.28;;;20.47;18.63
81151;BME280;70629;-26.026;27.976;2023-06-22T11:59:38;86797.66;;;20.56;19.51
81151;BME280;70629;-26.026;27.976;2023-06-22T12:02:08;86799.78;;;20.59;18.60
81151;BME280;70629;-26.026;27.976;2023-06-22T12:04:38;86789.34;;;20.50;19.06
81151;BME280;70629;-26.026;27.976;2023-06-22T12:07:07;86803.06;;;20.52;18.42
81151;BME280;70629;-26.026;27.976;2023-06-22T12:09:36;86789.97;;;20.46;19.82
81151;BME280;70629;-26.026;27.976;2023-06-22T12:12:05;86793.19;;;20.37;17.52
81151;BME280;70629;-26.026;27.976;2023-06-22T12:14:34;86793.06;;;20.31;18.50
81151;BME280;70629;-26.026;27.976;2023-06-22T12:17:04;86787.44;;;20.23;18.08
81151;BME280;70629;-26.026;27.976;2023-06-22T12:19:33;86788.75;;;20.22;19.46
81151;BME280;70629;-26.026;27.976;2023-06-22T12:22:02;86783.66;;;20.06;17.90
81151;BME280;70629;-26.026;27.976;2023-06-22T12:24:31;86779.50;;;20.03;17.96
81151;BME280;70629;-26.026;27.976;2023-06-22T12:27:00;86783.97;;;19.88;18.92
81151;BME280;70629;-26.026;27.976;2023-06-22T12:29:32;86783.50;;;19.98;18.64
81151;BME280;70629;-26.026;27.976;2023-06-22T12:32:02;86775.38;;;20.00;17.38
81151;BME280;70629;-26.026;27.976;2023-06-22T12:34:31;86778.75;;;19.98;18.29
81151;BME280;70629;-26.026;27.976;2023-06-22T12:37:01;86778.50;;;19.86;20.83
81151;BME280;70629;-26.026;27.976;2023-06-22T12:39:31;86781.72;;;20.10;20.63
81151;BME280;70629;-26.026;27.976;2023-06-22T12:42:01;86775.78;;;19.88;17.96
81151;BME280;70629;-26.026;27.976;2023-06-22T12:44:31;86780.25;;;20.05;19.06
81151;BME280;70629;-26.026;27.976;2023-06-22T12:47:00;86775.28;;;19.96;18.48
81151;BME280;70629;-26.026;27.976;2023-06-22T12:49:30;86778.88;;;20.04;20.77
81151;BME280;70629;-26.026;27.976;2023-06-22T12:52:00;86777.88;;;19.90;20.84
81151;BME280;70629;-26.026;27.976;2023-06-22T12:54:29;86774.16;;;19.75;19.67
81151;BME280;70629;-26.026;27.976;2023-06-22T12:57:09;86774.09;;;19.73;19.69
81151;BME280;70629;-26.026;27.976;2023-06-22T12:59:39;86773.38;;;19.70;19.13
81151;BME280;70629;-26.026;27.976;2023-06-22T13:02:11;86767.06;;;19.62;19.19